Lyme Center, New Hampshire
Current Conditions -  °F | °C
As of 5:53 PM on Thursday 23 Oct 2014 (Local Time) from KLEB Reporting Station
Overcast Overcast  
Wind Chill: 45°   Ceiling: 1300
Heat Index: 48°   Visibility: 10mi
Dew Point: 45°   Wind: 7mph
Humidity: 89%   Direction: 360°N
Pressure: 29.79"   Gusts: NA
Location:  43.8°N, 72.12°W
Report Text: KLEB 232153Z 36006KT 10SM OVC013 09/07 A2979 RMK AO2 RAE45 SLP088 P0007 T00890072
Loading
Personal Weather Stations






























Interactive Weather Map
Tropical Storm Tracking
New forecast layout! Learn more

10-Day Weather Forecast

Advertisements
Track Severe Weather on mobile